Burbank, South Dakota
Current Conditions -  °F | °C
As of 7:55 AM on Wednesday 22 Oct 2014 (Local Time) from KYKN Reporting Station
Clear Clear  
Wind Chill: 54°   Ceiling: Unl
Heat Index: 54°   Visibility: 10mi
Dew Point: 43°   Wind: 16mph
Humidity: 67%   Direction: 150°SSE
Pressure: 29.97"   Gusts: 22mph
Location:  42.75°N, 96.83°W
Report Text: KYKN 221255Z AUTO 15014G19KT 10SM CLR 12/06 A2997 RMK AO1
Loading
Personal Weather Stations






























Interactive Weather Map
Tropical Storm Tracking
New forecast layout! Learn more

10-Day Weather Forecast

Advertisements
Track Severe Weather on mobile